createdAt,value
2023-03-24T00:01:01.859Z,21.11
2023-03-24T00:06:05.860Z,21.06
2023-03-24T00:11:11.622Z,21.03
2023-03-24T00:16:16.927Z,21.01
2023-03-24T00:21:21.527Z,20.97
2023-03-24T00:26:24.927Z,20.94
2023-03-24T00:31:30.663Z,20.90
2023-03-24T00:36:33.778Z,20.89
2023-03-24T00:41:36.919Z,20.87
2023-03-24T00:46:46.140Z,20.81
2023-03-24T00:51:49.112Z,20.81
2023-03-24T00:56:55.745Z,20.77
2023-03-24T01:02:00.256Z,20.74
2023-03-24T01:07:03.351Z,20.71
2023-03-24T01:12:07.026Z,20.69
2023-03-24T01:17:11.322Z,20.67
2023-03-24T01:22:14.358Z,20.63
2023-03-24T01:27:17.240Z,20.60
2023-03-24T01:32:21.530Z,20.58
2023-03-24T01:37:24.454Z,20.52
2023-03-24T01:42:28.443Z,20.50
2023-03-24T01:47:34.105Z,20.49
2023-03-24T01:52:38.649Z,20.48
2023-03-24T01:57:43.054Z,20.44
2023-03-24T02:02:49.717Z,20.43
2023-03-24T02:08:01.724Z,20.42
2023-03-24T02:13:04.779Z,20.40
2023-03-24T02:18:13.356Z,20.36
2023-03-24T02:24:22.324Z,20.36
2023-03-24T02:29:52.253Z,20.36
2023-03-24T02:35:28.853Z,20.36
2023-03-24T02:40:37.538Z,20.33
2023-03-24T02:45:43.629Z,20.33
2023-03-24T02:50:51.337Z,20.31
2023-03-24T02:55:57.260Z,20.31
2023-03-24T03:01:03.436Z,20.32
2023-03-24T03:06:34.325Z,20.30
2023-03-24T03:11:39.313Z,20.29
2023-03-24T03:16:45.327Z,20.29
2023-03-24T03:21:49.560Z,20.26
2023-03-24T03:26:55.866Z,20.27
2023-03-24T03:31:59.828Z,20.26
2023-03-24T03:37:05.834Z,20.24
2023-03-24T03:42:10.086Z,20.26
2023-03-24T03:47:15.042Z,20.23
2023-03-24T03:52:20.802Z,20.24
2023-03-24T03:57:27.360Z,20.22
2023-03-24T04:02:54.173Z,20.19
2023-03-24T04:08:08.175Z,20.21
2023-03-24T04:13:33.050Z,20.20
2023-03-24T04:19:03.510Z,20.17
2023-03-24T04:24:14.769Z,20.18
2023-03-24T04:29:21.034Z,20.17
2023-03-24T04:34:26.294Z,20.16
2023-03-24T04:39:29.720Z,20.16
2023-03-24T04:44:37.200Z,20.16
2023-03-24T04:50:02.947Z,20.16
2023-03-24T04:55:13.567Z,20.16
2023-03-24T05:00:18.420Z,20.15
2023-03-24T05:05:21.788Z,20.16
2023-03-24T05:10:25.112Z,20.16
2023-03-24T05:15:32.903Z,20.13
2023-03-24T05:20:55.056Z,20.12
2023-03-24T05:25:58.373Z,20.10
2023-03-24T05:31:05.362Z,20.11
2023-03-24T05:36:18.529Z,20.10
2023-03-24T05:41:29.527Z,20.08
2023-03-24T05:46:33.672Z,20.01
2023-03-24T05:51:39.631Z,20.07
2023-03-24T05:56:43.345Z,20.05
2023-03-24T06:02:03.295Z,20.06
2023-03-24T06:07:16.217Z,20.06
2023-03-24T06:12:21.647Z,20.06
2023-03-24T06:17:38.416Z,20.02
2023-03-24T06:22:48.371Z,20.02
2023-03-24T06:27:54.128Z,20.03
2023-03-24T06:33:01.210Z,20.02
2023-03-24T06:38:04.469Z,20.01
2023-03-24T06:43:07.629Z,20.02
2023-03-24T06:48:15.461Z,20.01
2023-03-24T06:53:18.496Z,20.01
2023-03-24T06:58:22.610Z,20.00
2023-03-24T07:03:26.896Z,20.01
2023-03-24T07:08:48.516Z,19.97
2023-03-24T07:13:51.821Z,20.00
2023-03-24T07:18:56.081Z,20.00
2023-03-24T07:23:59.980Z,20.01
2023-03-24T07:29:10.825Z,20.01
2023-03-24T07:34:34.201Z,20.02
2023-03-24T07:39:37.503Z,20.01
2023-03-24T07:44:41.002Z,20.02
2023-03-24T07:49:46.173Z,20.05
2023-03-24T07:54:49.286Z,20.09
2023-03-24T08:00:25.154Z,20.07
2023-03-24T08:05:47.442Z,20.10
2023-03-24T08:11:06.326Z,20.11
2023-03-24T08:16:09.769Z,20.03
2023-03-24T08:21:14.058Z,19.92
2023-03-24T08:26:16.876Z,19.68
2023-03-24T08:31:19.690Z,19.56
2023-03-24T08:36:26.401Z,19.55
2023-03-24T08:41:34.678Z,19.69
2023-03-24T08:46:37.609Z,19.74
2023-03-24T08:51:41.729Z,19.79
2023-03-24T08:56:44.512Z,19.86
2023-03-24T09:01:47.570Z,19.90
2023-03-24T09:06:53.538Z,19.94
2023-03-24T09:11:56.391Z,20.00
2023-03-24T09:16:59.215Z,20.04
2023-03-24T09:22:03.477Z,20.08
2023-03-24T09:27:06.335Z,20.13
2023-03-24T09:32:09.376Z,20.15
2023-03-24T09:37:13.628Z,20.18
2023-03-24T09:42:19.816Z,20.23
2023-03-24T09:47:27.574Z,20.24
2023-03-24T09:52:34.715Z,20.25
2023-03-24T09:57:38.245Z,20.30
2023-03-24T10:02:41.231Z,20.33
2023-03-24T10:07:48.265Z,20.35
2023-03-24T10:12:51.243Z,20.33
2023-03-24T10:17:56.141Z,20.36
2023-03-24T10:23:03.774Z,20.36
2023-03-24T10:28:10.453Z,20.39
2023-03-24T10:33:13.422Z,20.42
2023-03-24T10:38:19.307Z,20.46
2023-03-24T10:43:22.315Z,20.44
2023-03-24T10:48:52.902Z,20.45
2023-03-24T10:54:12.057Z,20.50
2023-03-24T10:59:25.505Z,20.58
2023-03-24T11:04:29.229Z,20.62
2023-03-24T11:09:42.261Z,20.63
2023-03-24T11:14:45.585Z,20.66
2023-03-24T11:19:52.590Z,20.74
2023-03-24T11:24:57.495Z,20.69
2023-03-24T11:30:00.354Z,20.72
2023-03-24T11:35:05.688Z,20.77
2023-03-24T11:40:19.092Z,20.67
2023-03-24T11:45:24.553Z,20.66
2023-03-24T11:50:29.922Z,20.63
2023-03-24T11:55:37.234Z,20.63
2023-03-24T12:00:42.184Z,20.58
2023-03-24T12:05:47.661Z,20.61
2023-03-24T12:10:59.271Z,20.60
2023-03-24T12:16:11.898Z,20.59
2023-03-24T12:21:21.006Z,20.59
2023-03-24T12:26:25.974Z,20.53
2023-03-24T12:31:56.798Z,20.56
2023-03-24T12:37:01.586Z,20.51
2023-03-24T12:42:10.810Z,20.42
2023-03-24T12:47:20.969Z,20.41
2023-03-24T12:53:06.787Z,20.37
2023-03-24T12:58:16.011Z,20.31
2023-03-24T13:03:26.450Z,20.27
2023-03-24T13:08:30.423Z,20.25
2023-03-24T13:13:37.475Z,20.25
2023-03-24T13:18:41.287Z,20.26
2023-03-24T13:23:51.622Z,20.29
2023-03-24T13:29:05.880Z,20.46
2023-03-24T13:34:15.409Z,20.46
2023-03-24T13:39:19.996Z,20.52
2023-03-24T13:44:25.180Z,20.61
2023-03-24T13:49:27.972Z,20.66
2023-03-24T13:54:30.966Z,20.73
2023-03-24T13:59:41.191Z,20.80
2023-03-24T14:04:47.770Z,20.85
2023-03-24T14:09:59.168Z,20.90
2023-03-24T14:15:17.724Z,20.95
2023-03-24T14:20:42.995Z,20.99
2023-03-24T14:25:46.948Z,21.02
2023-03-24T14:31:18.460Z,21.09
2023-03-24T14:36:26.142Z,21.15
2023-03-24T14:41:31.389Z,21.20
2023-03-24T14:46:43.184Z,21.22
2023-03-24T14:51:48.558Z,21.28
2023-03-24T14:56:53.680Z,21.32
2023-03-24T15:02:02.467Z,21.43
2023-03-24T15:07:06.278Z,21.74
2023-03-24T15:12:10.018Z,22.06
2023-03-24T15:17:20.863Z,21.50
2023-03-24T15:22:23.905Z,21.75
2023-03-24T15:27:27.372Z,21.81
2023-03-24T15:32:32.720Z,21.86
2023-03-24T15:37:38.052Z,21.99
2023-03-24T15:42:43.236Z,22.02
2023-03-24T15:47:47.427Z,22.12
2023-03-24T15:52:50.266Z,22.56
2023-03-24T15:58:00.011Z,22.90
2023-03-24T16:03:05.123Z,22.84
2023-03-24T16:08:08.527Z,23.05
2023-03-24T16:13:16.685Z,23.29
2023-03-24T16:18:21.676Z,23.52
2023-03-24T16:23:26.772Z,23.75
2023-03-24T16:28:30.362Z,23.87
2023-03-24T16:33:36.346Z,24.07
2023-03-24T16:38:39.235Z,24.12
2023-03-24T16:43:42.070Z,23.94
2023-03-24T16:48:46.177Z,23.65
2023-03-24T16:53:49.056Z,23.55
2023-03-24T16:58:53.261Z,23.37
2023-03-24T17:03:58.036Z,23.24
2023-03-24T17:09:01.318Z,23.09
2023-03-24T17:14:07.209Z,23.00
2023-03-24T17:19:12.235Z,22.99
2023-03-24T17:24:15.080Z,22.89
2023-03-24T17:29:17.929Z,22.88
2023-03-24T17:34:22.598Z,22.87
2023-03-24T17:39:25.570Z,22.87
2023-03-24T17:44:28.354Z,22.85
2023-03-24T17:49:33.341Z,22.72
2023-03-24T17:54:36.123Z,22.71
2023-03-24T17:59:39.130Z,22.72
2023-03-24T18:04:43.318Z,22.67
2023-03-24T18:09:46.250Z,22.65
2023-03-24T18:14:49.009Z,22.62
2023-03-24T18:19:53.133Z,22.63
2023-03-24T18:24:58.021Z,22.58
2023-03-24T18:30:00.875Z,22.57
2023-03-24T18:35:05.650Z,22.53
2023-03-24T18:40:09.984Z,22.57
2023-03-24T18:45:18.454Z,22.59
2023-03-24T18:50:22.659Z,22.56
2023-03-24T18:55:26.641Z,22.55
2023-03-24T19:00:29.457Z,22.50
2023-03-24T19:05:34.290Z,22.51
2023-03-24T19:10:37.137Z,22.49
2023-03-24T19:15:48.375Z,22.48
2023-03-24T19:20:55.941Z,22.45
2023-03-24T19:25:58.805Z,22.42
2023-03-24T19:31:06.893Z,22.51
2023-03-24T19:36:11.479Z,22.39
2023-03-24T19:41:15.018Z,22.39
2023-03-24T19:46:20.934Z,22.35
2023-03-24T19:51:25.376Z,22.31
2023-03-24T19:56:28.258Z,22.29
2023-03-24T20:01:34.879Z,22.25
2023-03-24T20:06:39.151Z,22.21
2023-03-24T20:11:42.234Z,22.18
2023-03-24T20:16:45.076Z,22.19
2023-03-24T20:21:49.332Z,22.16
2023-03-24T20:26:52.273Z,22.14
2023-03-24T20:31:55.234Z,22.11
2023-03-24T20:36:59.629Z,22.09
2023-03-24T20:42:02.717Z,22.05
2023-03-24T20:47:05.821Z,22.05
2023-03-24T20:52:10.100Z,22.05
2023-03-24T20:57:12.908Z,22.06
2023-03-24T21:02:16.386Z,22.04
2023-03-24T21:07:20.621Z,22.01
2023-03-24T21:12:23.392Z,22.01
2023-03-24T21:17:32.575Z,21.98
2023-03-24T21:22:47.472Z,22.01
2023-03-24T21:27:50.275Z,21.99
2023-03-24T21:32:53.757Z,21.99
2023-03-24T21:37:57.885Z,21.98
2023-03-24T21:43:05.121Z,21.99
2023-03-24T21:48:08.109Z,21.99
2023-03-24T21:53:15.484Z,21.96
2023-03-24T21:58:18.318Z,21.98
2023-03-24T22:03:21.611Z,21.95
2023-03-24T22:08:30.529Z,21.92
2023-03-24T22:13:34.455Z,21.96
2023-03-24T22:18:37.211Z,21.93
2023-03-24T22:23:42.338Z,21.95
2023-03-24T22:28:45.281Z,21.95
2023-03-24T22:33:49.745Z,21.93
2023-03-24T22:38:54.029Z,21.92
2023-03-24T22:43:56.860Z,21.95
2023-03-24T22:48:59.731Z,21.93
2023-03-24T22:54:04.136Z,21.90
2023-03-24T22:59:07.044Z,21.89
2023-03-24T23:04:09.866Z,21.89
2023-03-24T23:09:14.442Z,21.90
2023-03-24T23:14:18.381Z,21.84
2023-03-24T23:19:21.902Z,21.90
2023-03-24T23:24:26.578Z,21.92
2023-03-24T23:29:29.340Z,21.95
2023-03-24T23:34:32.219Z,21.98
2023-03-24T23:39:36.844Z,21.99
2023-03-24T23:44:39.835Z,22.04
2023-03-24T23:49:42.788Z,22.07
2023-03-24T23:54:46.932Z,22.07
2023-03-24T23:59:53.039Z,22.10
